sensor_id;sensor_type;location;lat;lon;timestamp;temperature;humidity
38209;DHT22;24016;52.102;11.584;2022-12-18T00:01:04;-6.70;99.90
38209;DHT22;24016;52.102;11.584;2022-12-18T00:03:40;-6.70;99.90
38209;DHT22;24016;52.102;11.584;2022-12-18T00:06:06;-6.80;99.90
38209;DHT22;24016;52.102;11.584;2022-12-18T00:08:31;-6.80;99.90
38209;DHT22;24016;52.102;11.584;2022-12-18T00:11:03;-6.80;99.90
38209;DHT22;24016;52.102;11.584;2022-12-18T00:13:29;-6.80;99.90
38209;DHT22;24016;52.102;11.584;2022-12-18T00:15:55;-6.80;99.90
38209;DHT22;24016;52.102;11.584;2022-12-18T00:18:20;-6.80;99.90
38209;DHT22;24016;52.102;11.584;2022-12-18T00:20:46;-6.90;99.90
38209;DHT22;24016;52.102;11.584;2022-12-18T00:23:11;-6.90;99.90
38209;DHT22;24016;52.102;11.584;2022-12-18T00:25:37;-7.00;99.90
38209;DHT22;24016;52.102;11.584;2022-12-18T00:28:03;-7.00;99.90
38209;DHT22;24016;52.102;11.584;2022-12-18T00:30:29;-7.00;99.90
38209;DHT22;24016;52.102;11.584;2022-12-18T00:32:55;-7.10;99.90
38209;DHT22;24016;52.102;11.584;2022-12-18T00:35:21;-7.20;99.90
38209;DHT22;24016;52.102;11.584;2022-12-18T00:37:47;-7.20;99.90
38209;DHT22;24016;52.102;11.584;2022-12-18T00:40:12;-7.10;99.90
38209;DHT22;24016;52.102;11.584;2022-12-18T00:42:38;-7.10;99.90
38209;DHT22;24016;52.102;11.584;2022-12-18T00:45:27;-7.00;99.90
38209;DHT22;24016;52.102;11.584;2022-12-18T00:47:53;-7.00;99.90
38209;DHT22;24016;52.102;11.584;2022-12-18T00:50:19;-7.00;99.90
38209;DHT22;24016;52.102;11.584;2022-12-18T00:52:45;-7.00;99.90
38209;DHT22;24016;52.102;11.584;2022-12-18T00:55:11;-7.10;99.90
38209;DHT22;24016;52.102;11.584;2022-12-18T00:57:37;-7.10;99.90
38209;DHT22;24016;52.102;11.584;2022-12-18T01:00:04;-7.10;99.90
38209;DHT22;24016;52.102;11.584;2022-12-18T01:02:30;-7.10;99.90
38209;DHT22;24016;52.102;11.584;2022-12-18T01:04:56;-7.00;99.90
38209;DHT22;24016;52.102;11.584;2022-12-18T01:07:22;-7.10;99.90
38209;DHT22;24016;52.102;11.584;2022-12-18T01:09:47;-7.10;99.90
38209;DHT22;24016;52.102;11.584;2022-12-18T01:12:13;-7.10;99.90
38209;DHT22;24016;52.102;11.584;2022-12-18T01:14:38;-7.10;99.90
38209;DHT22;24016;52.102;11.584;2022-12-18T01:17:04;-7.10;99.90
38209;DHT22;24016;52.102;11.584;2022-12-18T01:19:30;-7.10;99.90
38209;DHT22;24016;52.102;11.584;2022-12-18T01:21:56;-7.10;99.90
38209;DHT22;24016;52.102;11.584;2022-12-18T01:24:22;-7.10;99.90
38209;DHT22;24016;52.102;11.584;2022-12-18T01:26:47;-7.10;99.90
38209;DHT22;24016;52.102;11.584;2022-12-18T01:29:13;-7.20;99.90
38209;DHT22;24016;52.102;11.584;2022-12-18T01:31:41;-7.20;99.90
38209;DHT22;24016;52.102;11.584;2022-12-18T01:34:07;-7.20;99.90
38209;DHT22;24016;52.102;11.584;2022-12-18T01:36:36;-7.10;99.90
38209;DHT22;24016;52.102;11.584;2022-12-18T01:39:05;-7.20;99.90
38209;DHT22;24016;52.102;11.584;2022-12-18T01:41:32;-7.20;99.90
38209;DHT22;24016;52.102;11.584;2022-12-18T01:47:22;-7.10;99.90
38209;DHT22;24016;52.102;11.584;2022-12-18T01:49:50;-7.10;99.90
38209;DHT22;24016;52.102;11.584;2022-12-18T01:52:16;-7.20;99.90
38209;DHT22;24016;52.102;11.584;2022-12-18T01:54:43;-7.20;99.90
38209;DHT22;24016;52.102;11.584;2022-12-18T01:57:09;-7.30;99.90
38209;DHT22;24016;52.102;11.584;2022-12-18T01:59:35;-7.30;99.90
38209;DHT22;24016;52.102;11.584;2022-12-18T02:02:02;-7.30;99.90
38209;DHT22;24016;52.102;11.584;2022-12-18T02:04:28;-7.40;99.90
38209;DHT22;24016;52.102;11.584;2022-12-18T02:10:07;-7.30;99.90
38209;DHT22;24016;52.102;11.584;2022-12-18T02:13:02;-7.30;99.90
38209;DHT22;24016;52.102;11.584;2022-12-18T02:15:43;-7.30;99.90
38209;DHT22;24016;52.102;11.584;2022-12-18T02:18:21;-7.20;99.90
38209;DHT22;24016;52.102;11.584;2022-12-18T02:26:23;-7.30;99.90
38209;DHT22;24016;52.102;11.584;2022-12-18T02:34:03;-7.40;99.90
38209;DHT22;24016;52.102;11.584;2022-12-18T02:36:31;-7.30;99.90
38209;DHT22;24016;52.102;11.584;2022-12-18T02:38:58;-7.30;99.90
38209;DHT22;24016;52.102;11.584;2022-12-18T02:41:25;-7.30;99.90
38209;DHT22;24016;52.102;11.584;2022-12-18T02:44:00;-7.30;99.90
38209;DHT22;24016;52.102;11.584;2022-12-18T02:46:34;-7.30;99.90
38209;DHT22;24016;52.102;11.584;2022-12-18T02:49:23;-7.30;99.90
38209;DHT22;24016;52.102;11.584;2022-12-18T02:57:23;-7.40;99.90
38209;DHT22;24016;52.102;11.584;2022-12-18T03:00:21;-7.50;99.90
38209;DHT22;24016;52.102;11.584;2022-12-18T03:02:53;-7.50;99.90
38209;DHT22;24016;52.102;11.584;2022-12-18T03:05:45;-7.50;99.90
38209;DHT22;24016;52.102;11.584;2022-12-18T03:08:16;-7.60;99.90
38209;DHT22;24016;52.102;11.584;2022-12-18T03:10:51;-7.60;99.90
38209;DHT22;24016;52.102;11.584;2022-12-18T03:13:27;-7.50;99.90
38209;DHT22;24016;52.102;11.584;2022-12-18T03:15:55;-7.50;99.90
38209;DHT22;24016;52.102;11.584;2022-12-18T03:18:26;-7.60;99.90
38209;DHT22;24016;52.102;11.584;2022-12-18T03:20:56;-7.60;99.90
38209;DHT22;24016;52.102;11.584;2022-12-18T03:23:25;-7.60;99.90
38209;DHT22;24016;52.102;11.584;2022-12-18T03:25:57;-7.50;99.90
38209;DHT22;24016;52.102;11.584;2022-12-18T03:28:24;-7.50;99.90
38209;DHT22;24016;52.102;11.584;2022-12-18T03:30:56;-7.50;99.90
38209;DHT22;24016;52.102;11.584;2022-12-18T03:33:32;-7.50;99.90
38209;DHT22;24016;52.102;11.584;2022-12-18T03:36:00;-7.50;99.90
38209;DHT22;24016;52.102;11.584;2022-12-18T03:38:25;-7.40;99.90
38209;DHT22;24016;52.102;11.584;2022-12-18T03:41:40;-7.40;99.90
38209;DHT22;24016;52.102;11.584;2022-12-18T03:47:26;-7.40;99.90
38209;DHT22;24016;52.102;11.584;2022-12-18T03:50:18;-7.40;99.90
38209;DHT22;24016;52.102;11.584;2022-12-18T03:55:21;-7.40;99.90
38209;DHT22;24016;52.102;11.584;2022-12-18T03:57:48;-7.40;99.90
38209;DHT22;24016;52.102;11.584;2022-12-18T04:00:17;-7.40;99.90
38209;DHT22;24016;52.102;11.584;2022-12-18T04:02:48;-7.50;99.90
38209;DHT22;24016;52.102;11.584;2022-12-18T04:05:15;-7.50;99.90
38209;DHT22;24016;52.102;11.584;2022-12-18T04:07:42;-7.50;99.90
38209;DHT22;24016;52.102;11.584;2022-12-18T04:10:09;-7.50;99.90
38209;DHT22;24016;52.102;11.584;2022-12-18T04:12:37;-7.50;99.90
38209;DHT22;24016;52.102;11.584;2022-12-18T04:15:04;-7.50;99.90
38209;DHT22;24016;52.102;11.584;2022-12-18T04:17:30;-7.60;99.90
38209;DHT22;24016;52.102;11.584;2022-12-18T04:19:55;-7.60;99.90
38209;DHT22;24016;52.102;11.584;2022-12-18T04:22:21;-7.60;99.90
38209;DHT22;24016;52.102;11.584;2022-12-18T04:24:46;-7.60;99.90
38209;DHT22;24016;52.102;11.584;2022-12-18T04:27:12;-7.60;99.90
38209;DHT22;24016;52.102;11.584;2022-12-18T04:29:38;-7.60;99.90
38209;DHT22;24016;52.102;11.584;2022-12-18T04:32:03;-7.60;99.90
38209;DHT22;24016;52.102;11.584;2022-12-18T04:34:29;-7.60;99.90
38209;DHT22;24016;52.102;11.584;2022-12-18T04:36:54;-7.60;99.90
38209;DHT22;24016;52.102;11.584;2022-12-18T04:39:20;-7.70;99.90
38209;DHT22;24016;52.102;11.584;2022-12-18T04:41:46;-7.70;99.90
38209;DHT22;24016;52.102;11.584;2022-12-18T04:44:11;-7.70;99.90
38209;DHT22;24016;52.102;11.584;2022-12-18T04:46:37;-7.70;99.90
38209;DHT22;24016;52.102;11.584;2022-12-18T04:49:02;-7.60;99.90
38209;DHT22;24016;52.102;11.584;2022-12-18T04:51:28;-7.60;99.90
38209;DHT22;24016;52.102;11.584;2022-12-18T04:53:53;-7.60;99.90
38209;DHT22;24016;52.102;11.584;2022-12-18T04:56:19;-7.70;99.90
38209;DHT22;24016;52.102;11.584;2022-12-18T04:58:44;-7.70;99.90
38209;DHT22;24016;52.102;11.584;2022-12-18T05:01:11;-7.60;99.90
38209;DHT22;24016;52.102;11.584;2022-12-18T05:03:37;-7.60;99.90
38209;DHT22;24016;52.102;11.584;2022-12-18T05:06:04;-7.60;99.90
38209;DHT22;24016;52.102;11.584;2022-12-18T05:08:30;-7.60;99.90
38209;DHT22;24016;52.102;11.584;2022-12-18T05:11:14;-7.60;99.90
38209;DHT22;24016;52.102;11.584;2022-12-18T05:13:42;-7.60;99.90
38209;DHT22;24016;52.102;11.584;2022-12-18T05:16:08;-7.60;99.90
38209;DHT22;24016;52.102;11.584;2022-12-18T05:18:34;-7.60;99.90
38209;DHT22;24016;52.102;11.584;2022-12-18T05:21:00;-7.70;99.90
38209;DHT22;24016;52.102;11.584;2022-12-18T05:23:26;-7.70;99.90
38209;DHT22;24016;52.102;11.584;2022-12-18T05:25:57;-7.80;99.90
38209;DHT22;24016;52.102;11.584;2022-12-18T05:28:24;-7.70;99.90
38209;DHT22;24016;52.102;11.584;2022-12-18T05:30:53;-7.70;99.90
38209;DHT22;24016;52.102;11.584;2022-12-18T05:33:19;-7.70;99.90
38209;DHT22;24016;52.102;11.584;2022-12-18T05:35:50;-7.70;99.90
38209;DHT22;24016;52.102;11.584;2022-12-18T05:38:16;-7.70;99.90
38209;DHT22;24016;52.102;11.584;2022-12-18T05:40:43;-7.80;99.90
38209;DHT22;24016;52.102;11.584;2022-12-18T05:43:09;-7.80;99.90
38209;DHT22;24016;52.102;11.584;2022-12-18T05:45:37;-7.80;99.90
38209;DHT22;24016;52.102;11.584;2022-12-18T05:48:03;-7.80;99.90
38209;DHT22;24016;52.102;11.584;2022-12-18T05:50:29;-7.80;99.90
38209;DHT22;24016;52.102;11.584;2022-12-18T05:52:55;-7.80;99.90
38209;DHT22;24016;52.102;11.584;2022-12-18T05:55:20;-7.80;99.90
38209;DHT22;24016;52.102;11.584;2022-12-18T05:57:46;-7.80;99.90
38209;DHT22;24016;52.102;11.584;2022-12-18T06:00:12;-7.70;99.90
38209;DHT22;24016;52.102;11.584;2022-12-18T06:02:38;-7.70;99.90
38209;DHT22;24016;52.102;11.584;2022-12-18T06:05:03;-7.70;99.90
38209;DHT22;24016;52.102;11.584;2022-12-18T06:07:29;-7.70;99.90
38209;DHT22;24016;52.102;11.584;2022-12-18T06:09:55;-7.70;99.90
38209;DHT22;24016;52.102;11.584;2022-12-18T06:12:20;-7.70;99.90
38209;DHT22;24016;52.102;11.584;2022-12-18T06:14:46;-7.70;99.90
38209;DHT22;24016;52.102;11.584;2022-12-18T06:17:12;-7.80;99.90
38209;DHT22;24016;52.102;11.584;2022-12-18T06:19:37;-7.80;99.90
38209;DHT22;24016;52.102;11.584;2022-12-18T06:22:03;-7.90;99.90
38209;DHT22;24016;52.102;11.584;2022-12-18T06:24:29;-7.90;99.90
38209;DHT22;24016;52.102;11.584;2022-12-18T06:26:54;-8.00;99.90
38209;DHT22;24016;52.102;11.584;2022-12-18T06:29:20;-8.00;99.90
38209;DHT22;24016;52.102;11.584;2022-12-18T06:31:46;-8.10;99.90
38209;DHT22;24016;52.102;11.584;2022-12-18T06:34:11;-8.10;99.90
38209;DHT22;24016;52.102;11.584;2022-12-18T06:36:37;-8.20;99.90
38209;DHT22;24016;52.102;11.584;2022-12-18T06:39:02;-8.20;99.90
38209;DHT22;24016;52.102;11.584;2022-12-18T06:41:28;-8.30;99.90
38209;DHT22;24016;52.102;11.584;2022-12-18T06:43:53;-8.30;99.90
38209;DHT22;24016;52.102;11.584;2022-12-18T06:46:19;-8.30;99.90
38209;DHT22;24016;52.102;11.584;2022-12-18T06:48:49;-8.40;99.90
38209;DHT22;24016;52.102;11.584;2022-12-18T06:51:22;-8.40;99.90
38209;DHT22;24016;52.102;11.584;2022-12-18T06:53:48;-8.50;99.90
38209;DHT22;24016;52.102;11.584;2022-12-18T06:56:14;-8.50;99.90
38209;DHT22;24016;52.102;11.584;2022-12-18T06:58:40;-8.50;99.90
38209;DHT22;24016;52.102;11.584;2022-12-18T07:01:08;-8.50;99.90
38209;DHT22;24016;52.102;11.584;2022-12-18T07:03:34;-8.60;99.90
38209;DHT22;24016;52.102;11.584;2022-12-18T07:06:00;-8.60;99.90
38209;DHT22;24016;52.102;11.584;2022-12-18T07:08:25;-8.60;99.90
38209;DHT22;24016;52.102;11.584;2022-12-18T07:10:51;-8.60;99.90
38209;DHT22;24016;52.102;11.584;2022-12-18T07:13:17;-8.60;99.90
38209;DHT22;24016;52.102;11.584;2022-12-18T07:15:43;-8.60;99.90
38209;DHT22;24016;52.102;11.584;2022-12-18T07:18:09;-8.60;99.90
38209;DHT22;24016;52.102;11.584;2022-12-18T07:20:34;-8.60;99.90
38209;DHT22;24016;52.102;11.584;2022-12-18T07:23:02;-8.60;99.90
38209;DHT22;24016;52.102;11.584;2022-12-18T07:25:28;-8.60;99.90
38209;DHT22;24016;52.102;11.584;2022-12-18T07:27:54;-8.70;99.90
38209;DHT22;24016;52.102;11.584;2022-12-18T07:30:19;-8.60;99.90
38209;DHT22;24016;52.102;11.584;2022-12-18T07:32:45;-8.60;99.90
38209;DHT22;24016;52.102;11.584;2022-12-18T07:35:11;-8.60;99.90
38209;DHT22;24016;52.102;11.584;2022-12-18T07:37:36;-8.60;99.90
38209;DHT22;24016;52.102;11.584;2022-12-18T07:40:02;-8.60;99.90
38209;DHT22;24016;52.102;11.584;2022-12-18T07:42:27;-8.60;99.90
38209;DHT22;24016;52.102;11.584;2022-12-18T07:44:57;-8.50;99.90
38209;DHT22;24016;52.102;11.584;2022-12-18T07:47:22;-8.50;99.90
38209;DHT22;24016;52.102;11.584;2022-12-18T07:49:48;-8.50;99.90
38209;DHT22;24016;52.102;11.584;2022-12-18T07:52:13;-8.50;99.90
38209;DHT22;24016;52.102;11.584;2022-12-18T07:54:39;-8.50;99.90
38209;DHT22;24016;52.102;11.584;2022-12-18T07:57:06;-8.50;99.90
38209;DHT22;24016;52.102;11.584;2022-12-18T07:59:31;-8.50;99.90
38209;DHT22;24016;52.102;11.584;2022-12-18T08:01:57;-8.40;99.90
38209;DHT22;24016;52.102;11.584;2022-12-18T08:04:22;-8.50;99.90
38209;DHT22;24016;52.102;11.584;2022-12-18T08:06:48;-8.50;99.90
38209;DHT22;24016;52.102;11.584;2022-12-18T08:09:13;-8.50;99.90
38209;DHT22;24016;52.102;11.584;2022-12-18T08:11:39;-8.40;99.90
38209;DHT22;24016;52.102;11.584;2022-12-18T08:14:04;-8.40;99.90
38209;DHT22;24016;52.102;11.584;2022-12-18T08:16:30;-8.40;99.90
38209;DHT22;24016;52.102;11.584;2022-12-18T08:18:56;-8.40;99.90
38209;DHT22;24016;52.102;11.584;2022-12-18T08:21:24;-8.40;99.90
38209;DHT22;24016;52.102;11.584;2022-12-18T08:23:51;-8.40;99.90
38209;DHT22;24016;52.102;11.584;2022-12-18T08:26:18;-8.40;99.90
38209;DHT22;24016;52.102;11.584;2022-12-18T08:28:44;-8.40;99.90
38209;DHT22;24016;52.102;11.584;2022-12-18T08:31:10;-8.40;99.90
38209;DHT22;24016;52.102;11.584;2022-12-18T08:33:36;-8.30;99.90
38209;DHT22;24016;52.102;11.584;2022-12-18T08:36:04;-8.30;99.90
38209;DHT22;24016;52.102;11.584;2022-12-18T08:38:29;-8.30;99.90
38209;DHT22;24016;52.102;11.584;2022-12-18T08:41:00;-8.30;99.90
38209;DHT22;24016;52.102;11.584;2022-12-18T08:43:26;-8.20;99.90
38209;DHT22;24016;52.102;11.584;2022-12-18T08:46:11;-8.20;99.90
38209;DHT22;24016;52.102;11.584;2022-12-18T08:48:36;-8.20;99.90
38209;DHT22;24016;52.102;11.584;2022-12-18T08:51:02;-8.10;99.90
38209;DHT22;24016;52.102;11.584;2022-12-18T08:53:27;-8.10;99.90
38209;DHT22;24016;52.102;11.584;2022-12-18T08:55:53;-8.00;99.90
38209;DHT22;24016;52.102;11.584;2022-12-18T08:58:19;-8.00;99.90
38209;DHT22;24016;52.102;11.584;2022-12-18T09:00:45;-8.00;99.90
38209;DHT22;24016;52.102;11.584;2022-12-18T09:03:12;-8.00;99.90
38209;DHT22;24016;52.102;11.584;2022-12-18T09:05:38;-8.00;99.90
38209;DHT22;24016;52.102;11.584;2022-12-18T09:08:03;-7.90;99.90
38209;DHT22;24016;52.102;11.584;2022-12-18T09:10:29;-7.90;99.90
38209;DHT22;24016;52.102;11.584;2022-12-18T09:12:54;-7.90;99.90
38209;DHT22;24016;52.102;11.584;2022-12-18T09:15:21;-7.90;99.90
38209;DHT22;24016;52.102;11.584;2022-12-18T09:17:47;-7.80;99.90
38209;DHT22;24016;52.102;11.584;2022-12-18T09:20:13;-7.70;99.90
38209;DHT22;24016;52.102;11.584;2022-12-18T09:22:39;-7.70;99.90
38209;DHT22;24016;52.102;11.584;2022-12-18T09:25:04;-7.70;99.90
38209;DHT22;24016;52.102;11.584;2022-12-18T09:27:33;-7.60;99.90
38209;DHT22;24016;52.102;11.584;2022-12-18T09:29:59;-7.60;99.90
38209;DHT22;24016;52.102;11.584;2022-12-18T09:32:24;-7.50;99.90
38209;DHT22;24016;52.102;11.584;2022-12-18T09:34:50;-7.50;99.90
38209;DHT22;24016;52.102;11.584;2022-12-18T09:37:16;-7.50;99.90
38209;DHT22;24016;52.102;11.584;2022-12-18T09:39:41;-7.40;99.90
38209;DHT22;24016;52.102;11.584;2022-12-18T09:42:12;-7.40;99.90
38209;DHT22;24016;52.102;11.584;2022-12-18T09:44:45;-7.40;99.90
38209;DHT22;24016;52.102;11.584;2022-12-18T09:47:27;-7.30;99.90
38209;DHT22;24016;52.102;11.584;2022-12-18T09:49:58;-7.30;99.90
38209;DHT22;24016;52.102;11.584;2022-12-18T09:52:41;-7.30;99.90
38209;DHT22;24016;52.102;11.584;2022-12-18T09:57:57;-7.30;99.90
38209;DHT22;24016;52.102;11.584;2022-12-18T10:00:26;-7.20;99.90
38209;DHT22;24016;52.102;11.584;2022-12-18T10:02:57;-7.20;99.90
38209;DHT22;24016;52.102;11.584;2022-12-18T10:08:05;-7.00;99.90
38209;DHT22;24016;52.102;11.584;2022-12-18T10:10:46;-6.90;99.90
38209;DHT22;24016;52.102;11.584;2022-12-18T10:13:28;-6.90;99.90
38209;DHT22;24016;52.102;11.584;2022-12-18T10:21:23;-6.60;99.90
38209;DHT22;24016;52.102;11.584;2022-12-18T10:24:04;-6.40;99.90
38209;DHT22;24016;52.102;11.584;2022-12-18T10:26:33;-6.30;99.90
38209;DHT22;24016;52.102;11.584;2022-12-18T10:29:00;-6.10;99.90
38209;DHT22;24016;52.102;11.584;2022-12-18T10:31:25;-5.90;99.90
38209;DHT22;24016;52.102;11.584;2022-12-18T10:33:53;-5.70;99.90
38209;DHT22;24016;52.102;11.584;2022-12-18T10:36:20;-5.60;99.90
38209;DHT22;24016;52.102;11.584;2022-12-18T10:38:46;-5.60;99.90
38209;DHT22;24016;52.102;11.584;2022-12-18T10:43:44;-5.40;99.90
38209;DHT22;24016;52.102;11.584;2022-12-18T10:51:21;-5.40;99.90
38209;DHT22;24016;52.102;11.584;2022-12-18T10:53:54;-5.40;99.90
38209;DHT22;24016;52.102;11.584;2022-12-18T10:56:21;-5.20;99.90
38209;DHT22;24016;52.102;11.584;2022-12-18T10:58:57;-5.00;99.90
38209;DHT22;24016;52.102;11.584;2022-12-18T11:01:22;-4.90;99.90
38209;DHT22;24016;52.102;11.584;2022-12-18T11:04:08;-4.80;99.90
38209;DHT22;24016;52.102;11.584;2022-12-18T11:06:55;-4.90;99.90
38209;DHT22;24016;52.102;11.584;2022-12-18T11:09:26;-5.00;99.90
38209;DHT22;24016;52.102;11.584;2022-12-18T11:11:56;-4.90;99.90
38209;DHT22;24016;52.102;11.584;2022-12-18T11:14:42;-4.70;99.90
38209;DHT22;24016;52.102;11.584;2022-12-18T11:17:22;-4.40;99.90
38209;DHT22;24016;52.102;11.584;2022-12-18T11:19:59;-4.40;99.90
38209;DHT22;24016;52.102;11.584;2022-12-18T11:22:34;-4.50;99.90
38209;DHT22;24016;52.102;11.584;2022-12-18T11:25:01;-4.40;99.90
38209;DHT22;24016;52.102;11.584;2022-12-18T11:27:28;-4.50;99.90
38209;DHT22;24016;52.102;11.584;2022-12-18T11:32:50;-4.70;99.90
38209;DHT22;24016;52.102;11.584;2022-12-18T11:38:19;-4.70;99.90
38209;DHT22;24016;52.102;11.584;2022-12-18T11:40:58;-4.60;99.90
38209;DHT22;24016;52.102;11.584;2022-12-18T11:43:33;-4.50;99.90
38209;DHT22;24016;52.102;11.584;2022-12-18T11:46:15;-4.30;99.90
38209;DHT22;24016;52.102;11.584;2022-12-18T11:48:54;-4.20;99.90
38209;DHT22;24016;52.102;11.584;2022-12-18T11:51:32;-4.20;99.90
38209;DHT22;24016;52.102;11.584;2022-12-18T11:54:01;-4.30;99.90
38209;DHT22;24016;52.102;11.584;2022-12-18T11:56:36;-4.20;99.90
38209;DHT22;24016;52.102;11.584;2022-12-18T12:01:48;-4.10;99.90
38209;DHT22;24016;52.102;11.584;2022-12-18T12:04:40;-4.20;99.90
38209;DHT22;24016;52.102;11.584;2022-12-18T12:07:26;-4.50;99.90
38209;DHT22;24016;52.102;11.584;2022-12-18T12:10:17;-4.60;99.90
38209;DHT22;24016;52.102;11.584;2022-12-18T12:12:59;-4.70;99.90
38209;DHT22;24016;52.102;11.584;2022-12-18T12:18:24;-4.80;99.90
38209;DHT22;24016;52.102;11.584;2022-12-18T12:38:06;-4.70;99.90
38209;DHT22;24016;52.102;11.584;2022-12-18T12:40:37;-4.80;99.90
38209;DHT22;24016;52.102;11.584;2022-12-18T12:43:20;-5.00;99.90
38209;DHT22;24016;52.102;11.584;2022-12-18T12:45:53;-5.10;99.90
38209;DHT22;24016;52.102;11.584;2022-12-18T12:48:36;-5.00;99.90
38209;DHT22;24016;52.102;11.584;2022-12-18T12:53:44;-5.00;99.90
38209;DHT22;24016;52.102;11.584;2022-12-18T12:56:12;-4.80;99.90
38209;DHT22;24016;52.102;11.584;2022-12-18T12:58:47;-4.70;99.90
38209;DHT22;24016;52.102;11.584;2022-12-18T13:01:32;-4.60;99.90
38209;DHT22;24016;52.102;11.584;2022-12-18T13:04:21;-4.40;99.90
38209;DHT22;24016;52.102;11.584;2022-12-18T13:12:58;-4.10;99.90
38209;DHT22;24016;52.102;11.584;2022-12-18T13:20:38;-4.10;99.90
38209;DHT22;24016;52.102;11.584;2022-12-18T13:25:59;-4.30;99.90
38209;DHT22;24016;52.102;11.584;2022-12-18T13:36:47;-4.70;99.90
38209;DHT22;24016;52.102;11.584;2022-12-18T13:41:45;-4.80;99.90
38209;DHT22;24016;52.102;11.584;2022-12-18T13:47:00;-4.90;99.90
38209;DHT22;24016;52.102;11.584;2022-12-18T13:52:01;-5.00;99.90
38209;DHT22;24016;52.102;11.584;2022-12-18T13:54:41;-5.00;99.90
38209;DHT22;24016;52.102;11.584;2022-12-18T13:57:30;-5.10;99.90
38209;DHT22;24016;52.102;11.584;2022-12-18T13:59:57;-5.10;99.90
38209;DHT22;24016;52.102;11.584;2022-12-18T14:02:26;-5.10;99.90
38209;DHT22;24016;52.102;11.584;2022-12-18T14:04:53;-5.20;99.90
38209;DHT22;24016;52.102;11.584;2022-12-18T14:07:26;-5.20;99.90
38209;DHT22;24016;52.102;11.584;2022-12-18T14:09:58;-5.20;99.90
38209;DHT22;24016;52.102;11.584;2022-12-18T14:12:28;-5.20;99.90
38209;DHT22;24016;52.102;11.584;2022-12-18T14:17:45;-5.30;99.90
38209;DHT22;24016;52.102;11.584;2022-12-18T14:20:15;-5.30;99.90
38209;DHT22;24016;52.102;11.584;2022-12-18T14:22:46;-5.30;99.90
38209;DHT22;24016;52.102;11.584;2022-12-18T14:27:45;-5.30;99.90
38209;DHT22;24016;52.102;11.584;2022-12-18T14:33:04;-5.40;99.90
38209;DHT22;24016;52.102;11.584;2022-12-18T14:35:35;-5.40;99.90
38209;DHT22;24016;52.102;11.584;2022-12-18T14:38:18;-5.50;99.90
38209;DHT22;24016;52.102;11.584;2022-12-18T14:40:44;-5.50;99.90
38209;DHT22;24016;52.102;11.584;2022-12-18T14:43:11;-5.60;99.90
38209;DHT22;24016;52.102;11.584;2022-12-18T14:45:42;-5.60;99.90
38209;DHT22;24016;52.102;11.584;2022-12-18T14:48:17;-5.70;99.90
38209;DHT22;24016;52.102;11.584;2022-12-18T14:50:43;-5.70;99.90
38209;DHT22;24016;52.102;11.584;2022-12-18T14:53:22;-5.70;99.90
38209;DHT22;24016;52.102;11.584;2022-12-18T14:55:49;-5.70;99.90
38209;DHT22;24016;52.102;11.584;2022-12-18T14:58:16;-5.70;99.90
38209;DHT22;24016;52.102;11.584;2022-12-18T15:00:43;-5.70;99.90
38209;DHT22;24016;52.102;11.584;2022-12-18T15:03:09;-5.70;99.90
38209;DHT22;24016;52.102;11.584;2022-12-18T15:05:35;-5.70;99.90
38209;DHT22;24016;52.102;11.584;2022-12-18T15:08:01;-5.80;99.90
38209;DHT22;24016;52.102;11.584;2022-12-18T15:10:32;-5.80;99.90
38209;DHT22;24016;52.102;11.584;2022-12-18T15:15:47;-5.80;99.90
38209;DHT22;24016;52.102;11.584;2022-12-18T15:18:33;-5.80;99.90
38209;DHT22;24016;52.102;11.584;2022-12-18T15:21:08;-5.80;99.90
38209;DHT22;24016;52.102;11.584;2022-12-18T15:23:49;-5.70;99.90
38209;DHT22;24016;52.102;11.584;2022-12-18T15:26:18;-5.70;99.90
38209;DHT22;24016;52.102;11.584;2022-12-18T15:28:54;-5.80;99.90
38209;DHT22;24016;52.102;11.584;2022-12-18T15:31:32;-5.80;99.90
38209;DHT22;24016;52.102;11.584;2022-12-18T15:36:37;-5.80;99.90
38209;DHT22;24016;52.102;11.584;2022-12-18T15:39:03;-5.80;99.90
38209;DHT22;24016;52.102;11.584;2022-12-18T15:41:34;-5.80;99.90
38209;DHT22;24016;52.102;11.584;2022-12-18T15:44:01;-5.80;99.90
38209;DHT22;24016;52.102;11.584;2022-12-18T15:46:26;-5.90;99.90
38209;DHT22;24016;52.102;11.584;2022-12-18T15:48:56;-5.90;99.90
38209;DHT22;24016;52.102;11.584;2022-12-18T15:53:59;-6.00;99.90
38209;DHT22;24016;52.102;11.584;2022-12-18T15:56:26;-6.00;99.90
38209;DHT22;24016;52.102;11.584;2022-12-18T15:59:15;-6.00;99.90
38209;DHT22;24016;52.102;11.584;2022-12-18T16:01:43;-6.00;99.90
38209;DHT22;24016;52.102;11.584;2022-12-18T16:04:14;-6.10;99.90
38209;DHT22;24016;52.102;11.584;2022-12-18T16:06:40;-6.10;99.90
38209;DHT22;24016;52.102;11.584;2022-12-18T16:09:06;-6.10;99.90
38209;DHT22;24016;52.102;11.584;2022-12-18T16:11:33;-6.00;99.90
38209;DHT22;24016;52.102;11.584;2022-12-18T16:14:20;-6.00;99.90
38209;DHT22;24016;52.102;11.584;2022-12-18T16:16:48;-6.00;99.90
38209;DHT22;24016;52.102;11.584;2022-12-18T16:19:15;-6.10;99.90
38209;DHT22;24016;52.102;11.584;2022-12-18T16:21:41;-6.10;99.90
38209;DHT22;24016;52.102;11.584;2022-12-18T16:24:15;-6.00;99.90
38209;DHT22;24016;52.102;11.584;2022-12-18T16:26:41;-6.00;99.90
38209;DHT22;24016;52.102;11.584;2022-12-18T16:29:07;-6.00;99.90
38209;DHT22;24016;52.102;11.584;2022-12-18T16:31:33;-6.00;99.90
38209;DHT22;24016;52.102;11.584;2022-12-18T16:36:47;-6.00;99.90
38209;DHT22;24016;52.102;11.584;2022-12-18T16:39:13;-6.00;99.90
38209;DHT22;24016;52.102;11.584;2022-12-18T16:41:39;-5.90;99.90
38209;DHT22;24016;52.102;11.584;2022-12-18T16:44:04;-5.90;99.90
38209;DHT22;24016;52.102;11.584;2022-12-18T16:46:30;-5.90;99.90
38209;DHT22;24016;52.102;11.584;2022-12-18T16:48:59;-5.90;99.90
38209;DHT22;24016;52.102;11.584;2022-12-18T16:51:26;-6.00;99.90
38209;DHT22;24016;52.102;11.584;2022-12-18T16:53:53;-5.90;99.90
38209;DHT22;24016;52.102;11.584;2022-12-18T16:56:19;-5.90;99.90
38209;DHT22;24016;52.102;11.584;2022-12-18T16:58:50;-5.90;99.90
38209;DHT22;24016;52.102;11.584;2022-12-18T17:01:16;-5.90;99.90
38209;DHT22;24016;52.102;11.584;2022-12-18T17:03:41;-5.90;99.90
38209;DHT22;24016;52.102;11.584;2022-12-18T17:06:07;-5.90;99.90
38209;DHT22;24016;52.102;11.584;2022-12-18T17:08:32;-5.90;99.90
38209;DHT22;24016;52.102;11.584;2022-12-18T17:11:07;-5.90;99.90
38209;DHT22;24016;52.102;11.584;2022-12-18T17:13:33;-5.90;99.90
38209;DHT22;24016;52.102;11.584;2022-12-18T17:16:06;-5.90;99.90
38209;DHT22;24016;52.102;11.584;2022-12-18T17:18:33;-5.80;99.90
38209;DHT22;24016;52.102;11.584;2022-12-18T17:21:04;-5.80;99.90
38209;DHT22;24016;52.102;11.584;2022-12-18T17:23:30;-5.70;99.90
38209;DHT22;24016;52.102;11.584;2022-12-18T17:25:56;-5.80;99.90
38209;DHT22;24016;52.102;11.584;2022-12-18T17:28:26;-5.70;99.90
38209;DHT22;24016;52.102;11.584;2022-12-18T17:30:53;-5.70;99.90
38209;DHT22;24016;52.102;11.584;2022-12-18T17:33:19;-5.70;99.90
38209;DHT22;24016;52.102;11.584;2022-12-18T17:35:45;-5.70;99.90